Time;durP1;ratioP1;P1;durP2;ratioP2;P2;SDS_P1;SDS_P2;PMS_P1;PMS_P2;Temp;Humidity;BMP_temperature;BMP_pressure;BME280_temperature;BME280_humidity;BME280_pressure;Samples;Min_cycle;Max_cycle;Signal;HPM_P1;HPM_P2
2023/11/19 00:00:16;;;;;;;16.58;12.63;;;;;;;;;;4955018;28;20150;-54
2023/11/19 00:02:42;;;;;;;16.88;12.45;;;;;;;;;;4966343;28;20038;-58
2023/11/19 00:05:09;;;;;;;20.40;13.23;;;;;;;;;;4972256;28;20035;-55
2023/11/19 00:07:36;;;;;;;20.98;12.45;;;;;;;;;;4955162;28;20027;-59
2023/11/19 00:10:06;;;;;;;18.25;12.15;;;;;;;;;;4972445;28;20031;-56
2023/11/19 00:12:32;;;;;;;17.70;12.23;;;;;;;;;;4971748;28;20412;-55
2023/11/19 00:14:58;;;;;;;15.85;12.98;;;;;;;;;;4972525;28;20042;-56
2023/11/19 00:17:25;;;;;;;16.30;11.63;;;;;;;;;;4971834;28;20073;-56
2023/11/19 00:19:51;;;;;;;16.02;12.57;;;;;;;;;;4972195;28;20519;-57
2023/11/19 00:22:17;;;;;;;16.92;12.80;;;;;;;;;;4971352;28;20499;-57
2023/11/19 00:24:43;;;;;;;18.08;12.85;;;;;;;;;;4971889;28;20034;-53
2023/11/19 00:27:11;;;;;;;19.77;12.95;;;;;;;;;;4954211;28;20031;-56
2023/11/19 00:29:37;;;;;;;16.58;11.32;;;;;;;;;;4970692;28;20118;-55
2023/11/19 00:32:05;;;;;;;14.80;13.18;;;;;;;;;;4971840;28;20445;-54
2023/11/19 00:34:31;;;;;;;15.07;12.32;;;;;;;;;;4974635;28;20026;-52
2023/11/19 00:36:57;;;;;;;15.43;11.60;;;;;;;;;;4975760;28;20085;-54
2023/11/19 00:39:23;;;;;;;18.63;12.77;;;;;;;;;;4975777;28;20030;-54
2023/11/19 00:41:49;;;;;;;13.57;11.95;;;;;;;;;;4975432;28;20492;-52
2023/11/19 00:44:15;;;;;;;16.45;12.00;;;;;;;;;;4980046;28;20027;-56
2023/11/19 00:46:41;;;;;;;14.30;11.07;;;;;;;;;;4975293;28;20552;-57
2023/11/19 00:49:07;;;;;;;20.33;12.15;;;;;;;;;;4975310;28;20026;-55
2023/11/19 00:51:33;;;;;;;15.27;11.88;;;;;;;;;;4974154;28;20106;-57
2023/11/19 00:54:00;;;;;;;14.50;11.13;;;;;;;;;;4975659;28;20201;-54
2023/11/19 00:56:28;;;;;;;13.65;10.65;;;;;;;;;;4974267;28;20035;-56
2023/11/19 00:58:54;;;;;;;15.48;11.45;;;;;;;;;;4975085;28;20026;-53
2023/11/19 01:01:20;;;;;;;13.23;11.00;;;;;;;;;;4974480;28;20026;-53
2023/11/19 01:03:46;;;;;;;14.93;11.13;;;;;;;;;;4975113;28;20038;-57
2023/11/19 01:06:12;;;;;;;14.05;11.85;;;;;;;;;;4974832;28;20019;-55
2023/11/19 01:08:39;;;;;;;13.68;11.02;;;;;;;;;;4975388;28;20034;-53
2023/11/19 01:11:05;;;;;;;13.82;10.63;;;;;;;;;;4974190;28;20061;-50
2023/11/19 01:13:31;;;;;;;12.57;11.27;;;;;;;;;;4975200;28;20019;-55
2023/11/19 01:15:57;;;;;;;13.30;10.63;;;;;;;;;;4975048;28;20559;-53
2023/11/19 01:18:23;;;;;;;14.57;11.27;;;;;;;;;;4974016;28;20053;-53
2023/11/19 01:20:49;;;;;;;15.85;11.82;;;;;;;;;;4974537;28;20082;-56
2023/11/19 01:23:15;;;;;;;15.80;10.73;;;;;;;;;;4975060;28;20050;-53
2023/11/19 01:25:41;;;;;;;12.98;10.48;;;;;;;;;;4974522;28;20543;-55
2023/11/19 01:28:07;;;;;;;10.93;9.73;;;;;;;;;;4974225;28;20055;-56
2023/11/19 01:30:33;;;;;;;15.55;11.48;;;;;;;;;;4973466;28;20441;-55
2023/11/19 01:32:59;;;;;;;12.50;11.18;;;;;;;;;;4974325;28;20030;-52
2023/11/19 01:35:25;;;;;;;11.45;9.52;;;;;;;;;;4974489;28;20042;-55
2023/11/19 01:37:51;;;;;;;16.02;10.90;;;;;;;;;;4956760;28;20102;-54
2023/11/19 01:40:20;;;;;;;13.27;10.13;;;;;;;;;;4974750;28;20031;-55
2023/11/19 01:42:46;;;;;;;11.52;9.85;;;;;;;;;;4965786;28;20027;-55
2023/11/19 01:45:21;;;;;;;13.98;10.32;;;;;;;;;;4956477;28;20473;-53
2023/11/19 01:47:47;;;;;;;15.38;10.35;;;;;;;;;;4974362;28;20027;-55
2023/11/19 01:50:13;;;;;;;12.68;10.20;;;;;;;;;;4974293;28;20113;-53
2023/11/19 01:52:39;;;;;;;14.63;10.18;;;;;;;;;;4974271;28;20094;-55
2023/11/19 01:55:07;;;;;;;11.98;9.68;;;;;;;;;;4973873;28;20050;-54
2023/11/19 01:57:34;;;;;;;10.85;9.02;;;;;;;;;;4973597;28;20023;-55
2023/11/19 02:00:00;;;;;;;11.48;10.13;;;;;;;;;;4974231;28;20026;-54
2023/11/19 02:02:26;;;;;;;12.27;9.73;;;;;;;;;;4973757;28;20043;-55
2023/11/19 02:04:53;;;;;;;13.43;10.60;;;;;;;;;;4973566;28;20053;-53
2023/11/19 02:07:20;;;;;;;12.98;10.10;;;;;;;;;;4973785;28;20034;-51
2023/11/19 02:09:46;;;;;;;16.10;10.82;;;;;;;;;;4973110;28;20106;-52
2023/11/19 02:12:12;;;;;;;12.07;10.02;;;;;;;;;;4973577;28;20110;-56
2023/11/19 02:14:38;;;;;;;13.60;10.57;;;;;;;;;;4973723;28;20440;-54
2023/11/19 02:17:04;;;;;;;12.02;9.43;;;;;;;;;;4973699;28;20026;-56
2023/11/19 02:19:30;;;;;;;13.23;10.18;;;;;;;;;;4973834;28;20130;-54
2023/11/19 02:21:56;;;;;;;15.80;10.95;;;;;;;;;;4973307;28;20055;-52
2023/11/19 02:24:23;;;;;;;13.13;9.93;;;;;;;;;;4971882;28;20037;-54
2023/11/19 02:26:49;;;;;;;11.85;9.68;;;;;;;;;;4972994;28;20030;-53
2023/11/19 02:29:15;;;;;;;15.73;10.93;;;;;;;;;;4972202;28;20058;-53
2023/11/19 02:31:41;;;;;;;12.20;9.38;;;;;;;;;;4972661;28;20035;-55
2023/11/19 02:34:07;;;;;;;12.30;10.75;;;;;;;;;;4973326;28;20049;-54
2023/11/19 02:36:33;;;;;;;11.88;9.88;;;;;;;;;;4971815;28;20046;-56
2023/11/19 02:38:59;;;;;;;12.18;9.70;;;;;;;;;;4955038;28;20392;-52
2023/11/19 02:41:25;;;;;;;11.15;8.80;;;;;;;;;;4972436;28;20037;-56
2023/11/19 02:43:51;;;;;;;14.85;10.38;;;;;;;;;;4972141;28;20023;-54
2023/11/19 02:46:18;;;;;;;14.43;10.27;;;;;;;;;;4972623;28;20493;-55
2023/11/19 02:48:45;;;;;;;11.75;10.55;;;;;;;;;;4971933;28;20023;-56
2023/11/19 02:51:12;;;;;;;11.43;10.23;;;;;;;;;;4972336;28;20031;-50
2023/11/19 02:53:39;;;;;;;13.10;9.43;;;;;;;;;;4971380;28;20031;-51
2023/11/19 02:56:19;;;;;;;11.52;10.32;;;;;;;;;;4972328;28;20049;-52
2023/11/19 02:58:46;;;;;;;14.85;11.38;;;;;;;;;;4971969;28;20102;-54
2023/11/19 03:01:23;;;;;;;14.60;11.88;;;;;;;;;;4972154;28;20035;-55
2023/11/19 03:03:54;;;;;;;19.67;13.98;;;;;;;;;;4969002;28;20023;-53
2023/11/19 03:06:23;;;;;;;19.65;13.50;;;;;;;;;;4966197;28;20137;-51
2023/11/19 03:08:49;;;;;;;20.33;13.60;;;;;;;;;;4971629;28;20027;-54
2023/11/19 03:11:16;;;;;;;21.42;14.25;;;;;;;;;;4971746;28;20039;-53
2023/11/19 03:13:41;;;;;;;18.85;13.65;;;;;;;;;;4971725;28;20070;-55
2023/11/19 03:16:08;;;;;;;19.92;13.98;;;;;;;;;;4971892;28;20034;-55
2023/11/19 03:18:34;;;;;;;20.95;14.55;;;;;;;;;;4971319;28;20025;-54
2023/11/19 03:21:00;;;;;;;16.70;13.57;;;;;;;;;;4971448;28;20026;-54
2023/11/19 03:23:28;;;;;;;20.25;14.38;;;;;;;;;;4972497;28;20023;-51
2023/11/19 03:25:55;;;;;;;18.33;13.82;;;;;;;;;;4972037;28;20173;-53
2023/11/19 03:28:21;;;;;;;21.88;14.40;;;;;;;;;;4972050;28;20552;-51
2023/11/19 03:30:47;;;;;;;19.73;13.32;;;;;;;;;;4971629;28;20109;-52
2023/11/19 03:33:13;;;;;;;27.83;14.93;;;;;;;;;;4971940;28;20107;-55
2023/11/19 03:35:40;;;;;;;18.38;14.25;;;;;;;;;;4972218;28;20122;-52
2023/11/19 03:38:06;;;;;;;21.67;13.80;;;;;;;;;;4972698;28;20025;-53
2023/11/19 03:40:33;;;;;;;18.25;13.85;;;;;;;;;;4962713;28;20035;-56
2023/11/19 03:42:59;;;;;;;19.00;14.02;;;;;;;;;;4972917;28;20038;-51
2023/11/19 03:45:25;;;;;;;18.40;13.50;;;;;;;;;;4972102;28;20037;-57
2023/11/19 03:47:52;;;;;;;17.60;14.23;;;;;;;;;;4969829;28;20427;-57
2023/11/19 03:50:20;;;;;;;20.65;13.02;;;;;;;;;;4973040;28;20027;-56
2023/11/19 03:52:46;;;;;;;18.83;14.55;;;;;;;;;;4972485;28;20027;-53
2023/11/19 03:55:12;;;;;;;17.67;13.38;;;;;;;;;;4972062;28;20035;-57
2023/11/19 03:57:38;;;;;;;18.83;13.90;;;;;;;;;;4971033;28;20027;-58
2023/11/19 04:00:10;;;;;;;15.68;13.85;;;;;;;;;;4957416;28;20193;-58
2023/11/19 04:02:39;;;;;;;23.45;13.75;;;;;;;;;;4963739;28;20384;-57
2023/11/19 04:05:06;;;;;;;18.02;14.00;;;;;;;;;;4966040;28;20019;-56
2023/11/19 04:07:32;;;;;;;21.70;13.43;;;;;;;;;;4948501;28;20492;-56
2023/11/19 04:09:58;;;;;;;16.98;14.23;;;;;;;;;;4955174;28;20033;-56
2023/11/19 04:12:24;;;;;;;19.25;14.18;;;;;;;;;;4976288;28;20030;-57
2023/11/19 04:14:50;;;;;;;22.63;14.60;;;;;;;;;;4949996;28;20378;-57
2023/11/19 04:17:16;;;;;;;19.33;14.20;;;;;;;;;;4975870;28;20536;-57
2023/11/19 04:19:43;;;;;;;18.33;13.45;;;;;;;;;;4975891;28;20065;-58
2023/11/19 04:22:09;;;;;;;17.85;14.35;;;;;;;;;;4976366;28;20050;-55
2023/11/19 04:24:35;;;;;;;16.15;13.25;;;;;;;;;;4975687;28;20071;-55
2023/11/19 04:27:01;;;;;;;15.85;12.38;;;;;;;;;;4975315;28;20051;-53
2023/11/19 04:29:27;;;;;;;18.60;13.23;;;;;;;;;;4975385;28;20043;-52
2023/11/19 04:31:53;;;;;;;15.40;12.60;;;;;;;;;;4975168;28;20503;-57
2023/11/19 04:34:19;;;;;;;17.90;12.98;;;;;;;;;;4975231;28;20035;-56
2023/11/19 04:36:45;;;;;;;19.40;13.32;;;;;;;;;;4975117;28;20049;-56
2023/11/19 04:39:12;;;;;;;18.98;12.77;;;;;;;;;;4949127;29;20031;-55
2023/11/19 04:41:46;;;;;;;15.55;12.63;;;;;;;;;;4972127;28;20122;-55
2023/11/19 04:44:12;;;;;;;14.98;12.50;;;;;;;;;;4949429;28;20114;-51
2023/11/19 04:46:38;;;;;;;17.10;12.68;;;;;;;;;;4950005;28;20170;-52
2023/11/19 04:49:04;;;;;;;15.98;11.93;;;;;;;;;;4975589;28;20042;-55
2023/11/19 04:51:30;;;;;;;16.63;12.90;;;;;;;;;;4957220;28;20031;-54
2023/11/19 04:53:56;;;;;;;17.23;12.82;;;;;;;;;;4975289;28;20030;-54
2023/11/19 04:56:23;;;;;;;16.95;13.15;;;;;;;;;;4974715;28;20110;-53
2023/11/19 04:58:49;;;;;;;17.98;11.82;;;;;;;;;;4975309;28;20035;-53
2023/11/19 05:01:18;;;;;;;16.13;12.45;;;;;;;;;;4974422;28;20037;-52
2023/11/19 05:03:45;;;;;;;14.90;12.40;;;;;;;;;;4974554;28;20027;-52
2023/11/19 05:06:11;;;;;;;13.25;11.65;;;;;;;;;;4974503;28;20019;-54
2023/11/19 05:08:37;;;;;;;15.15;11.55;;;;;;;;;;4975190;28;20034;-52
2023/11/19 05:11:03;;;;;;;16.48;12.23;;;;;;;;;;4975323;28;20445;-55
2023/11/19 05:13:29;;;;;;;14.00;11.40;;;;;;;;;;4974485;28;20027;-55
2023/11/19 05:15:55;;;;;;;15.85;12.30;;;;;;;;;;4957205;28;20039;-56
2023/11/19 05:18:21;;;;;;;14.57;11.80;;;;;;;;;;4974405;28;20094;-53
2023/11/19 05:20:47;;;;;;;20.33;11.48;;;;;;;;;;4973340;28;20533;-54
2023/11/19 05:23:13;;;;;;;14.50;10.82;;;;;;;;;;4974724;28;20038;-55
2023/11/19 05:25:39;;;;;;;13.20;11.38;;;;;;;;;;4975038;28;20026;-53
2023/11/19 05:28:05;;;;;;;14.82;11.35;;;;;;;;;;4974085;28;20027;-56
2023/11/19 05:30:31;;;;;;;12.68;10.98;;;;;;;;;;4974429;28;20448;-56
2023/11/19 05:32:57;;;;;;;14.18;11.35;;;;;;;;;;4974660;28;20106;-54
2023/11/19 05:35:23;;;;;;;13.50;11.02;;;;;;;;;;4974054;28;20042;-53
2023/11/19 05:37:50;;;;;;;14.10;11.38;;;;;;;;;;4974386;28;20041;-53
2023/11/19 05:40:17;;;;;;;13.80;10.60;;;;;;;;;;4974852;28;20489;-56
2023/11/19 05:42:43;;;;;;;14.85;10.45;;;;;;;;;;4957010;28;20401;-54
2023/11/19 05:45:11;;;;;;;14.15;10.20;;;;;;;;;;4968852;28;20086;-56
2023/11/19 05:47:37;;;;;;;12.55;9.85;;;;;;;;;;4973617;28;20023;-56
2023/11/19 05:50:05;;;;;;;11.38;9.93;;;;;;;;;;4973708;28;20042;-52
2023/11/19 05:52:33;;;;;;;13.40;10.18;;;;;;;;;;4973837;28;20035;-54
2023/11/19 05:55:04;;;;;;;12.23;10.23;;;;;;;;;;4972816;28;20033;-54
2023/11/19 05:57:30;;;;;;;14.68;10.65;;;;;;;;;;4947917;28;20088;-54
2023/11/19 05:59:56;;;;;;;20.88;11.40;;;;;;;;;;4974463;28;20445;-56
2023/11/19 06:02:22;;;;;;;14.57;11.07;;;;;;;;;;4973733;28;20038;-52
2023/11/19 06:04:49;;;;;;;12.75;9.73;;;;;;;;;;4973827;28;20033;-53
2023/11/19 06:07:15;;;;;;;13.38;10.18;;;;;;;;;;4973643;28;20023;-52
2023/11/19 06:09:42;;;;;;;12.52;10.18;;;;;;;;;;4973776;28;20397;-55
2023/11/19 06:12:08;;;;;;;14.07;9.73;;;;;;;;;;4974070;28;20480;-56
2023/11/19 06:14:34;;;;;;;15.15;9.95;;;;;;;;;;4974035;28;20110;-54
2023/11/19 06:17:00;;;;;;;14.13;10.35;;;;;;;;;;4973371;28;20031;-54
2023/11/19 06:19:26;;;;;;;13.48;10.52;;;;;;;;;;4973680;28;20027;-55
2023/11/19 06:21:52;;;;;;;12.32;9.27;;;;;;;;;;4973695;28;20034;-53
2023/11/19 06:24:18;;;;;;;11.85;9.05;;;;;;;;;;4973171;28;20377;-55
2023/11/19 06:26:44;;;;;;;10.85;9.25;;;;;;;;;;4973675;28;20031;-55
2023/11/19 06:29:09;;;;;;;10.68;9.10;;;;;;;;;;4969360;28;20041;-56
2023/11/19 06:31:36;;;;;;;13.23;9.70;;;;;;;;;;4972491;28;20068;-52
2023/11/19 06:34:03;;;;;;;10.32;8.32;;;;;;;;;;4972974;28;20030;-51
2023/11/19 06:36:29;;;;;;;11.23;9.02;;;;;;;;;;4972859;28;20043;-53
2023/11/19 06:38:55;;;;;;;12.80;8.35;;;;;;;;;;4963577;28;20469;-56
2023/11/19 06:41:21;;;;;;;12.05;8.45;;;;;;;;;;4973210;28;20086;-52
2023/11/19 06:43:47;;;;;;;13.20;9.18;;;;;;;;;;4973211;28;20031;-54
2023/11/19 06:46:17;;;;;;;12.40;7.72;;;;;;;;;;4973368;28;20034;-56
2023/11/19 06:48:44;;;;;;;9.68;8.32;;;;;;;;;;4972642;28;20027;-53
2023/11/19 06:51:10;;;;;;;9.40;7.75;;;;;;;;;;4973583;28;20046;-55
2023/11/19 06:53:36;;;;;;;9.90;7.40;;;;;;;;;;4972081;28;20026;-56
2023/11/19 06:56:06;;;;;;;8.60;7.20;;;;;;;;;;4949153;28;20080;-59
2023/11/19 06:58:32;;;;;;;8.88;7.55;;;;;;;;;;4971055;28;20019;-55
2023/11/19 07:00:58;;;;;;;8.75;7.28;;;;;;;;;;4972904;28;20027;-53
2023/11/19 07:03:24;;;;;;;11.00;7.70;;;;;;;;;;4972192;28;20058;-57
2023/11/19 07:05:50;;;;;;;9.93;7.50;;;;;;;;;;4972887;28;20027;-55
2023/11/19 07:08:16;;;;;;;11.35;7.93;;;;;;;;;;4973173;28;20030;-54
2023/11/19 07:10:42;;;;;;;8.93;7.38;;;;;;;;;;4971849;28;20097;-55
2023/11/19 07:13:09;;;;;;;9.15;7.47;;;;;;;;;;4972332;28;20105;-56
2023/11/19 07:15:35;;;;;;;11.50;7.95;;;;;;;;;;4972304;28;20027;-53
2023/11/19 07:18:01;;;;;;;11.35;7.18;;;;;;;;;;4972367;28;20038;-51
2023/11/19 07:20:27;;;;;;;10.48;7.63;;;;;;;;;;4972330;28;20026;-55
2023/11/19 07:22:55;;;;;;;10.20;7.50;;;;;;;;;;4972325;28;20507;-52
2023/11/19 07:25:21;;;;;;;8.52;6.45;;;;;;;;;;4972580;28;20039;-56
2023/11/19 07:27:48;;;;;;;9.35;6.70;;;;;;;;;;4971854;28;20023;-56
2023/11/19 07:30:14;;;;;;;8.75;6.22;;;;;;;;;;4972796;28;20046;-56
2023/11/19 07:32:40;;;;;;;7.75;6.32;;;;;;;;;;4972077;28;20343;-55
2023/11/19 07:35:06;;;;;;;8.30;7.00;;;;;;;;;;4972364;28;20081;-55
2023/11/19 07:37:32;;;;;;;9.68;6.88;;;;;;;;;;4972178;28;20148;-57
2023/11/19 07:39:58;;;;;;;8.38;6.75;;;;;;;;;;4971805;28;20039;-56
2023/11/19 07:42:24;;;;;;;8.77;6.88;;;;;;;;;;4972194;28;20591;-55
2023/11/19 07:44:51;;;;;;;8.80;7.30;;;;;;;;;;4975168;28;20380;-53
2023/11/19 07:47:17;;;;;;;8.13;6.10;;;;;;;;;;4957276;28;20125;-60
2023/11/19 07:49:43;;;;;;;7.88;6.90;;;;;;;;;;4973985;28;20035;-50
2023/11/19 07:52:09;;;;;;;7.85;5.72;;;;;;;;;;4976802;28;20026;-49
2023/11/19 07:54:35;;;;;;;8.68;6.50;;;;;;;;;;4976444;28;20035;-50
2023/11/19 07:57:01;;;;;;;7.43;5.80;;;;;;;;;;4976731;28;20078;-51
2023/11/19 07:59:27;;;;;;;8.25;6.03;;;;;;;;;;4975409;28;20034;-48
2023/11/19 08:01:53;;;;;;;7.70;6.10;;;;;;;;;;4975620;28;20030;-52
2023/11/19 08:04:19;;;;;;;9.73;6.13;;;;;;;;;;4953728;29;20090;-53
2023/11/19 08:06:45;;;;;;;7.05;6.35;;;;;;;;;;4972093;28;20107;-51
2023/11/19 08:09:14;;;;;;;8.25;6.82;;;;;;;;;;4975790;28;20098;-50
2023/11/19 08:11:41;;;;;;;8.52;7.03;;;;;;;;;;4975875;28;20031;-50
2023/11/19 08:14:08;;;;;;;10.48;6.45;;;;;;;;;;4976510;28;20054;-50
2023/11/19 08:16:34;;;;;;;6.80;5.60;;;;;;;;;;4975536;28;20507;-50
2023/11/19 08:19:00;;;;;;;7.72;5.93;;;;;;;;;;4975502;28;20034;-53
2023/11/19 08:21:26;;;;;;;10.48;7.88;;;;;;;;;;4976281;28;20089;-50
2023/11/19 08:23:53;;;;;;;9.10;7.13;;;;;;;;;;4975942;28;20033;-49
2023/11/19 08:26:19;;;;;;;8.13;7.20;;;;;;;;;;4975562;28;20085;-53
2023/11/19 08:28:45;;;;;;;11.05;6.65;;;;;;;;;;4976152;28;20034;-49
2023/11/19 08:31:11;;;;;;;8.57;5.18;;;;;;;;;;4975459;28;20058;-53
2023/11/19 08:33:37;;;;;;;6.72;5.60;;;;;;;;;;4974986;28;20405;-54
2023/11/19 08:36:03;;;;;;;7.53;6.05;;;;;;;;;;4976611;28;20159;-55
2023/11/19 08:38:30;;;;;;;8.02;6.30;;;;;;;;;;4975789;28;20110;-50
2023/11/19 08:41:02;;;;;;;7.53;5.35;;;;;;;;;;4968931;28;20094;-49
2023/11/19 08:43:28;;;;;;;9.98;6.13;;;;;;;;;;4961891;28;20094;-50
2023/11/19 08:45:54;;;;;;;7.28;6.32;;;;;;;;;;4975737;28;20058;-49
2023/11/19 08:48:20;;;;;;;9.05;6.55;;;;;;;;;;4976128;28;20023;-53
2023/11/19 08:50:46;;;;;;;7.22;6.53;;;;;;;;;;4975585;28;20034;-51
2023/11/19 08:53:12;;;;;;;9.95;7.60;;;;;;;;;;4970639;28;20214;-56
2023/11/19 08:55:38;;;;;;;8.68;7.45;;;;;;;;;;4972370;28;20081;-55
2023/11/19 08:58:04;;;;;;;9.93;7.82;;;;;;;;;;4961390;28;20037;-55
2023/11/19 09:00:32;;;;;;;9.00;7.55;;;;;;;;;;4958565;28;20034;-54
2023/11/19 09:02:59;;;;;;;9.85;8.07;;;;;;;;;;4961624;28;20050;-48
2023/11/19 09:05:25;;;;;;;9.40;7.43;;;;;;;;;;4939270;28;20114;-54
2023/11/19 09:07:51;;;;;;;11.10;7.97;;;;;;;;;;4975358;28;20073;-53
2023/11/19 09:10:17;;;;;;;9.43;7.70;;;;;;;;;;4975293;28;20034;-50
2023/11/19 09:12:43;;;;;;;10.55;7.35;;;;;;;;;;4975274;28;20106;-53
2023/11/19 09:15:10;;;;;;;11.82;8.27;;;;;;;;;;4975492;28;20092;-50
2023/11/19 09:17:36;;;;;;;10.48;9.02;;;;;;;;;;4975071;28;20034;-50
2023/11/19 09:20:02;;;;;;;11.50;10.30;;;;;;;;;;4975411;28;20366;-52
2023/11/19 09:22:28;;;;;;;11.43;10.07;;;;;;;;;;4969186;28;20070;-53
2023/11/19 09:24:54;;;;;;;11.15;9.50;;;;;;;;;;4975283;28;20333;-51
2023/11/19 09:27:20;;;;;;;14.20;11.68;;;;;;;;;;4975001;28;20093;-52
2023/11/19 09:29:48;;;;;;;15.27;13.57;;;;;;;;;;4974807;28;20039;-49
2023/11/19 09:32:14;;;;;;;18.83;14.55;;;;;;;;;;4973772;28;20038;-48
2023/11/19 09:34:40;;;;;;;21.50;15.73;;;;;;;;;;4975083;28;20491;-53
2023/11/19 09:37:07;;;;;;;22.52;16.80;;;;;;;;;;4974887;28;20031;-52
2023/11/19 09:39:33;;;;;;;20.95;17.20;;;;;;;;;;4974927;28;20023;-51
2023/11/19 09:41:59;;;;;;;19.73;17.60;;;;;;;;;;4974993;28;20348;-50
2023/11/19 09:44:26;;;;;;;20.40;18.17;;;;;;;;;;4974707;28;20031;-49
2023/11/19 09:46:52;;;;;;;19.45;17.50;;;;;;;;;;4974815;28;20015;-51
2023/11/19 09:49:22;;;;;;;20.95;16.60;;;;;;;;;;4974835;28;20035;-51
2023/11/19 09:51:48;;;;;;;19.15;16.77;;;;;;;;;;4974632;28;20023;-49
2023/11/19 09:54:14;;;;;;;19.02;16.50;;;;;;;;;;4974651;28;20031;-54
2023/11/19 09:56:40;;;;;;;18.23;15.23;;;;;;;;;;4974546;28;20481;-50
2023/11/19 09:59:07;;;;;;;22.13;19.40;;;;;;;;;;4974647;28;20442;-50
2023/11/19 10:01:34;;;;;;;19.42;16.75;;;;;;;;;;4969774;28;20035;-51
2023/11/19 10:04:00;;;;;;;21.02;17.80;;;;;;;;;;4955809;28;20024;-54
2023/11/19 10:06:26;;;;;;;20.13;17.92;;;;;;;;;;4954753;28;20490;-53
2023/11/19 10:08:53;;;;;;;23.48;18.65;;;;;;;;;;4959260;28;20165;-53
2023/11/19 10:11:19;;;;;;;19.95;17.83;;;;;;;;;;4974516;28;20031;-53
2023/11/19 10:13:47;;;;;;;20.35;17.55;;;;;;;;;;4960720;28;20022;-55
2023/11/19 10:16:13;;;;;;;21.23;18.98;;;;;;;;;;4974156;28;20101;-51
2023/11/19 10:18:50;;;;;;;21.42;18.15;;;;;;;;;;4974237;28;20424;-51
2023/11/19 10:21:17;;;;;;;21.95;19.20;;;;;;;;;;4974147;28;20022;-49
2023/11/19 10:23:53;;;;;;;22.15;18.33;;;;;;;;;;4973983;28;20034;-53
2023/11/19 10:26:22;;;;;;;21.15;18.05;;;;;;;;;;4968563;28;20110;-52
2023/11/19 10:28:48;;;;;;;22.17;19.27;;;;;;;;;;4966225;28;20031;-48
2023/11/19 10:31:15;;;;;;;20.75;18.55;;;;;;;;;;4973125;28;20122;-49
2023/11/19 10:33:41;;;;;;;22.63;19.45;;;;;;;;;;4973906;28;20073;-52
2023/11/19 10:36:07;;;;;;;23.00;19.10;;;;;;;;;;4973462;28;20493;-51
2023/11/19 10:38:34;;;;;;;23.10;19.63;;;;;;;;;;4956318;28;20489;-50
2023/11/19 10:41:00;;;;;;;22.48;18.95;;;;;;;;;;4973588;28;20053;-50
2023/11/19 10:43:26;;;;;;;21.90;18.70;;;;;;;;;;4973666;28;20369;-52
2023/11/19 10:45:52;;;;;;;22.77;19.38;;;;;;;;;;4973705;28;20080;-50
2023/11/19 10:48:19;;;;;;;20.98;18.15;;;;;;;;;;4973858;28;20034;-54
2023/11/19 10:50:47;;;;;;;20.83;18.02;;;;;;;;;;4973471;28;20041;-52
2023/11/19 10:53:13;;;;;;;22.90;17.15;;;;;;;;;;4973645;28;20113;-49
2023/11/19 10:55:40;;;;;;;22.10;18.92;;;;;;;;;;4973229;28;20042;-50
2023/11/19 10:58:06;;;;;;;19.98;17.73;;;;;;;;;;4973367;28;20033;-51
2023/11/19 11:00:39;;;;;;;20.70;18.25;;;;;;;;;;4973177;28;20117;-47
2023/11/19 11:03:27;;;;;;;20.15;16.88;;;;;;;;;;4973477;28;20038;-54
2023/11/19 11:05:53;;;;;;;23.20;17.50;;;;;;;;;;4973256;28;20355;-53
2023/11/19 11:08:20;;;;;;;17.55;15.80;;;;;;;;;;4973561;28;20125;-54
2023/11/19 11:10:46;;;;;;;21.40;16.83;;;;;;;;;;4973027;28;20433;-53
2023/11/19 11:13:14;;;;;;;18.55;16.40;;;;;;;;;;4973118;28;20089;-51
2023/11/19 11:15:42;;;;;;;19.42;16.75;;;;;;;;;;4972974;28;20454;-52
2023/11/19 11:18:09;;;;;;;17.30;15.45;;;;;;;;;;4973127;28;20548;-54
2023/11/19 11:20:35;;;;;;;20.20;16.70;;;;;;;;;;4973325;28;20050;-53
2023/11/19 11:23:10;;;;;;;18.80;16.48;;;;;;;;;;4973374;28;20435;-53
2023/11/19 11:25:53;;;;;;;17.55;15.65;;;;;;;;;;4973516;28;20376;-49
2023/11/19 11:28:25;;;;;;;20.63;16.35;;;;;;;;;;4972999;28;20089;-49
2023/11/19 11:31:00;;;;;;;17.35;15.45;;;;;;;;;;4972897;28;20143;-53
2023/11/19 11:33:37;;;;;;;18.45;16.55;;;;;;;;;;4973140;28;20082;-53
2023/11/19 11:36:10;;;;;;;17.08;15.38;;;;;;;;;;4973105;28;20043;-49
2023/11/19 11:38:40;;;;;;;18.08;16.15;;;;;;;;;;4972127;28;20031;-49
2023/11/19 11:41:18;;;;;;;19.90;17.15;;;;;;;;;;4954071;28;20035;-51
2023/11/19 11:43:46;;;;;;;20.92;17.33;;;;;;;;;;4971766;28;20062;-52
2023/11/19 11:46:32;;;;;;;22.88;16.88;;;;;;;;;;4972139;28;20046;-51
2023/11/19 11:49:00;;;;;;;18.77;15.00;;;;;;;;;;4955900;28;20540;-51
2023/11/19 11:51:45;;;;;;;18.30;15.02;;;;;;;;;;4972290;28;20085;-51
2023/11/19 11:54:11;;;;;;;37.80;28.65;;;;;;;;;;4972536;28;20110;-55
2023/11/19 11:56:38;;;;;;;49.55;34.88;;;;;;;;;;4972236;28;20046;-49
2023/11/19 11:59:19;;;;;;;23.05;19.70;;;;;;;;;;4964093;28;20028;-49
2023/11/19 12:02:00;;;;;;;23.73;19.23;;;;;;;;;;4971834;28;20035;-50
2023/11/19 12:04:27;;;;;;;20.48;16.08;;;;;;;;;;4970078;28;20048;-51
2023/11/19 12:07:03;;;;;;;18.63;16.50;;;;;;;;;;4972762;28;20081;-53
2023/11/19 12:09:30;;;;;;;19.50;16.17;;;;;;;;;;4970219;28;20023;-51
2023/11/19 12:12:29;;;;;;;18.15;14.82;;;;;;;;;;4964540;28;20079;-54
2023/11/19 12:14:58;;;;;;;18.35;16.10;;;;;;;;;;4931992;28;20112;-50
2023/11/19 12:17:33;;;;;;;18.42;16.35;;;;;;;;;;4969332;28;20031;-50
2023/11/19 12:20:00;;;;;;;17.27;13.95;;;;;;;;;;4963285;28;20078;-51
2023/11/19 12:22:26;;;;;;;16.67;14.93;;;;;;;;;;4962596;28;20041;-53
2023/11/19 12:24:53;;;;;;;16.17;14.48;;;;;;;;;;4966694;28;20031;-50
2023/11/19 12:27:21;;;;;;;17.92;15.02;;;;;;;;;;4955535;28;20098;-53
2023/11/19 12:29:47;;;;;;;17.58;15.00;;;;;;;;;;4972968;28;20065;-51
2023/11/19 12:32:13;;;;;;;18.67;13.27;;;;;;;;;;4973741;28;20074;-54
2023/11/19 12:34:39;;;;;;;14.57;12.70;;;;;;;;;;4974134;28;20418;-51
2023/11/19 12:37:06;;;;;;;17.23;14.02;;;;;;;;;;4974810;28;20532;-51
2023/11/19 12:39:32;;;;;;;17.95;15.23;;;;;;;;;;4973209;28;20181;-50
2023/11/19 12:42:01;;;;;;;18.70;15.45;;;;;;;;;;4971517;28;20147;-53
2023/11/19 12:44:27;;;;;;;17.40;15.23;;;;;;;;;;4961207;28;20101;-52
2023/11/19 12:47:20;;;;;;;21.25;16.08;;;;;;;;;;4964196;28;20035;-53
2023/11/19 12:49:56;;;;;;;17.15;15.00;;;;;;;;;;4971016;28;20042;-50
2023/11/19 12:52:23;;;;;;;16.13;14.18;;;;;;;;;;4974227;28;20086;-52
2023/11/19 12:54:49;;;;;;;18.63;15.77;;;;;;;;;;4974327;28;20030;-54
2023/11/19 12:57:16;;;;;;;17.80;15.18;;;;;;;;;;4973007;28;20061;-50
2023/11/19 12:59:42;;;;;;;17.77;15.98;;;;;;;;;;4974770;28;20019;-54
2023/11/19 13:02:09;;;;;;;16.92;14.88;;;;;;;;;;4954005;28;20043;-51
2023/11/19 13:04:35;;;;;;;18.48;14.88;;;;;;;;;;4974870;28;20030;-51
2023/11/19 13:07:04;;;;;;;19.05;16.45;;;;;;;;;;4974503;28;20074;-49
2023/11/19 13:09:30;;;;;;;17.88;16.08;;;;;;;;;;4974803;28;20527;-51
2023/11/19 13:11:58;;;;;;;18.33;16.17;;;;;;;;;;4974425;28;20440;-53
2023/11/19 13:14:24;;;;;;;18.58;15.65;;;;;;;;;;4974347;28;20026;-51
2023/11/19 13:16:50;;;;;;;18.05;15.45;;;;;;;;;;4974918;28;20043;-54
2023/11/19 13:19:18;;;;;;;16.45;14.50;;;;;;;;;;4973994;28;20070;-50
2023/11/19 13:21:46;;;;;;;22.50;16.55;;;;;;;;;;4974842;28;20027;-51
2023/11/19 13:24:13;;;;;;;17.55;15.35;;;;;;;;;;4974167;28;20039;-49
2023/11/19 13:26:39;;;;;;;18.65;15.63;;;;;;;;;;4944129;29;20428;-51
2023/11/19 13:29:05;;;;;;;17.02;15.23;;;;;;;;;;4958993;28;20031;-53
2023/11/19 13:31:31;;;;;;;17.83;14.23;;;;;;;;;;4973011;28;20082;-53
2023/11/19 13:33:58;;;;;;;17.17;14.95;;;;;;;;;;4964144;28;20027;-54
2023/11/19 13:36:25;;;;;;;19.15;15.68;;;;;;;;;;4972944;28;20137;-54
2023/11/19 13:38:51;;;;;;;18.60;14.68;;;;;;;;;;4969453;28;20019;-56
2023/11/19 13:41:17;;;;;;;12.40;11.15;;;;;;;;;;4967066;28;20105;-51
2023/11/19 13:43:43;;;;;;;13.65;10.20;;;;;;;;;;4972592;28;20054;-54
2023/11/19 13:46:09;;;;;;;16.30;10.13;;;;;;;;;;4960005;28;20446;-52
2023/11/19 13:48:35;;;;;;;12.70;9.57;;;;;;;;;;4967348;28;20110;-55
2023/11/19 13:51:02;;;;;;;10.80;8.65;;;;;;;;;;4972635;28;20043;-57
2023/11/19 13:53:28;;;;;;;8.05;7.07;;;;;;;;;;4970260;28;20023;-56
2023/11/19 13:55:54;;;;;;;10.07;8.45;;;;;;;;;;4973223;28;20039;-52
2023/11/19 13:58:20;;;;;;;9.25;8.27;;;;;;;;;;4954340;28;20053;-53
2023/11/19 14:00:46;;;;;;;10.68;8.82;;;;;;;;;;4972921;28;20558;-52
2023/11/19 14:03:12;;;;;;;10.38;9.27;;;;;;;;;;4955302;28;20019;-53
2023/11/19 14:05:38;;;;;;;9.38;8.38;;;;;;;;;;4972170;28;20469;-50
2023/11/19 14:08:11;;;;;;;11.85;9.95;;;;;;;;;;4971836;28;20042;-51
2023/11/19 14:10:38;;;;;;;12.13;9.43;;;;;;;;;;4972315;28;20110;-54
2023/11/19 14:13:05;;;;;;;11.05;8.80;;;;;;;;;;4973704;28;20568;-54
2023/11/19 14:15:31;;;;;;;10.05;8.57;;;;;;;;;;4969729;28;20026;-53
2023/11/19 14:17:57;;;;;;;8.85;7.82;;;;;;;;;;4974113;28;20023;-55
2023/11/19 14:20:24;;;;;;;9.77;8.77;;;;;;;;;;4973619;28;20038;-54
2023/11/19 14:22:51;;;;;;;12.07;9.50;;;;;;;;;;4974373;28;20345;-54